createdAt,value
2022-09-28T00:01:15.713Z,49.22
2022-09-28T00:04:18.011Z,53.63
2022-09-28T00:07:19.821Z,52.28
2022-09-28T00:10:24.380Z,51.90
2022-09-28T00:13:26.352Z,53.92
2022-09-28T00:16:31.937Z,49.30
2022-09-28T00:19:35.047Z,58.65
2022-09-28T00:22:37.166Z,57.58
2022-09-28T00:25:39.000Z,62.67
2022-09-28T00:28:40.874Z,59.00
2022-09-28T00:31:42.937Z,58.78
2022-09-28T00:34:48.998Z,58.80
2022-09-28T00:37:50.980Z,53.20
2022-09-28T00:40:52.929Z,57.92
2022-09-28T00:44:36.021Z,64.60
2022-09-28T00:47:58.454Z,60.20
2022-09-28T00:51:05.984Z,55.83
2022-09-28T00:54:09.252Z,47.15
2022-09-28T01:00:13.801Z,49.67
2022-09-28T01:03:16.718Z,55.25
2022-09-28T01:06:24.607Z,52.95
2022-09-28T01:09:28.889Z,59.45
2022-09-28T01:12:30.744Z,54.17
2022-09-28T01:15:36.785Z,53.97
2022-09-28T01:18:54.386Z,57.53
2022-09-28T01:22:27.387Z,59.92
2022-09-28T01:25:51.303Z,57.70
2022-09-28T01:29:01.609Z,55.85
2022-09-28T01:32:27.856Z,55.60
2022-09-28T01:35:39.965Z,59.80
2022-09-28T01:38:55.915Z,55.22
2022-09-28T01:42:03.181Z,56.97
2022-09-28T01:45:16.445Z,52.03
2022-09-28T01:48:31.392Z,51.03
2022-09-28T01:51:54.959Z,49.97
2022-09-28T01:55:04.124Z,49.60
2022-09-28T01:58:27.415Z,47.67
2022-09-28T02:01:43.155Z,51.63
2022-09-28T02:05:09.246Z,50.40
2022-09-28T02:08:29.305Z,54.90
2022-09-28T02:11:33.386Z,53.22
2022-09-28T02:14:38.043Z,52.72
2022-09-28T02:17:40.058Z,54.88
2022-09-28T02:20:47.640Z,51.67
2022-09-28T02:24:06.988Z,49.45
2022-09-28T02:27:16.518Z,50.33
2022-09-28T02:30:18.988Z,42.67
2022-09-28T02:33:33.732Z,42.90
2022-09-28T02:36:35.881Z,41.03
2022-09-28T02:39:37.697Z,43.67
2022-09-28T02:42:54.411Z,44.38
2022-09-28T02:46:08.207Z,45.83
2022-09-28T02:49:22.455Z,45.08
2022-09-28T02:52:47.648Z,46.20
2022-09-28T02:56:07.648Z,44.22
2022-09-28T02:59:50.628Z,49.40
2022-09-28T03:03:22.187Z,48.47
2022-09-28T03:06:50.356Z,47.15
2022-09-28T03:10:28.083Z,44.88
2022-09-28T03:13:31.053Z,35.97
2022-09-28T03:16:33.068Z,39.58
2022-09-28T03:19:36.785Z,37.15
2022-09-28T03:22:38.914Z,40.50
2022-09-28T03:25:40.830Z,36.67
2022-09-28T03:28:43.231Z,38.17
2022-09-28T03:31:45.145Z,38.27
2022-09-28T03:34:47.082Z,34.88
2022-09-28T03:37:48.920Z,36.28
2022-09-28T03:40:58.588Z,37.08
2022-09-28T03:44:00.578Z,38.72
2022-09-28T03:47:02.451Z,38.55
2022-09-28T03:50:04.611Z,37.50
2022-09-28T03:53:06.462Z,39.13
2022-09-28T03:56:14.634Z,37.22
2022-09-28T03:59:16.651Z,35.75
2022-09-28T04:02:18.615Z,35.83
2022-09-28T04:05:20.602Z,36.90
2022-09-28T04:08:22.611Z,36.35
2022-09-28T04:11:24.557Z,36.28
2022-09-28T04:14:26.405Z,36.95
2022-09-28T04:17:28.297Z,37.53
2022-09-28T04:20:30.127Z,42.30
2022-09-28T04:23:32.466Z,44.75
2022-09-28T04:26:34.353Z,44.78
2022-09-28T04:29:36.241Z,41.40
2022-09-28T04:32:39.327Z,44.20
2022-09-28T04:35:41.334Z,43.67
2022-09-28T04:38:58.583Z,42.58
2022-09-28T04:42:01.901Z,43.50
2022-09-28T04:48:07.948Z,42.93
2022-09-28T04:51:10.128Z,40.35
2022-09-28T04:54:11.990Z,41.95
2022-09-28T04:57:13.846Z,41.78
2022-09-28T05:00:16.886Z,45.08
2022-09-28T05:03:19.090Z,44.75
2022-09-28T05:06:22.758Z,44.35
2022-09-28T05:09:24.642Z,45.28
2022-09-28T05:12:26.533Z,47.15
2022-09-28T05:15:28.390Z,44.50
2022-09-28T05:18:30.301Z,39.67
2022-09-28T05:21:32.235Z,40.00
2022-09-28T05:24:34.107Z,39.28
2022-09-28T05:27:35.927Z,37.42
2022-09-28T05:30:38.322Z,41.28
2022-09-28T05:33:40.222Z,39.50
2022-09-28T05:36:42.898Z,44.75
2022-09-28T05:39:44.711Z,48.97
2022-09-28T05:42:46.667Z,46.25
2022-09-28T05:45:51.644Z,41.70
2022-09-28T05:48:56.336Z,44.35
2022-09-28T05:51:58.177Z,45.67
2022-09-28T05:55:00.563Z,43.28
2022-09-28T05:58:04.703Z,40.33
2022-09-28T06:01:06.667Z,39.10
2022-09-28T06:04:09.044Z,39.85
2022-09-28T06:07:12.085Z,40.05
2022-09-28T06:10:14.011Z,33.58
2022-09-28T06:13:15.852Z,32.47
2022-09-28T06:16:18.780Z,28.80
2022-09-28T06:19:20.685Z,26.85
2022-09-28T06:22:22.498Z,25.90
2022-09-28T06:25:25.026Z,28.67
2022-09-28T06:28:27.010Z,24.30
2022-09-28T06:31:31.440Z,26.33
2022-09-28T06:34:34.934Z,28.17
2022-09-28T06:37:36.991Z,29.77
2022-09-28T06:40:39.435Z,28.30
2022-09-28T06:43:41.615Z,29.80
2022-09-28T06:46:43.442Z,30.42
2022-09-28T06:49:47.824Z,28.85
2022-09-28T06:52:54.327Z,28.83
2022-09-28T06:55:58.005Z,28.60
2022-09-28T06:58:59.872Z,29.50
2022-09-28T07:02:01.859Z,27.83
2022-09-28T07:05:04.067Z,28.35
2022-09-28T07:08:05.948Z,29.23
2022-09-28T07:11:08.343Z,27.85
2022-09-28T07:14:16.345Z,27.33
2022-09-28T07:17:24.948Z,25.10
2022-09-28T07:20:27.341Z,23.10
2022-09-28T07:23:30.709Z,22.85
2022-09-28T07:26:33.261Z,23.65
2022-09-28T07:29:35.129Z,22.50
2022-09-28T07:32:37.580Z,24.05
2022-09-28T07:35:41.808Z,22.75
2022-09-28T07:38:44.079Z,24.77
2022-09-28T07:41:45.907Z,25.58
2022-09-28T07:44:47.899Z,24.25
2022-09-28T07:47:50.859Z,23.55
2022-09-28T07:50:55.167Z,20.92
2022-09-28T07:53:57.031Z,18.58
2022-09-28T07:56:58.914Z,21.30
2022-09-28T08:00:02.224Z,19.90
2022-09-28T08:06:09.902Z,18.77
2022-09-28T08:09:11.833Z,20.23
2022-09-28T08:12:14.220Z,18.23
2022-09-28T08:15:16.133Z,17.53
2022-09-28T08:18:18.182Z,17.17
2022-09-28T08:21:41.455Z,17.15
2022-09-28T08:24:43.481Z,15.45
2022-09-28T08:27:45.328Z,14.73
2022-09-28T08:30:48.505Z,14.90
2022-09-28T08:36:59.149Z,13.30
2022-09-28T08:40:01.128Z,14.20
2022-09-28T08:43:14.594Z,14.57
2022-09-28T08:49:29.739Z,14.32
2022-09-28T08:52:38.000Z,12.50
2022-09-28T08:55:40.399Z,13.63
2022-09-28T08:58:45.951Z,13.53
2022-09-28T09:02:16.231Z,13.32
2022-09-28T09:05:21.040Z,11.88
2022-09-28T09:08:32.183Z,11.85
2022-09-28T09:11:51.923Z,11.85
2022-09-28T09:14:56.651Z,12.23
2022-09-28T09:18:27.524Z,11.20
2022-09-28T09:21:58.027Z,12.73
2022-09-28T09:25:25.928Z,13.88
2022-09-28T09:28:33.393Z,12.30
2022-09-28T09:32:05.630Z,12.35
2022-09-28T09:35:07.694Z,11.25
2022-09-28T09:38:45.987Z,9.07
2022-09-28T09:41:53.935Z,10.32
2022-09-28T09:45:07.749Z,9.70
2022-09-28T09:48:24.936Z,9.55
2022-09-28T09:51:57.232Z,9.68
2022-09-28T09:55:16.924Z,9.30
2022-09-28T09:58:26.026Z,9.43
2022-09-28T10:01:35.354Z,9.68
2022-09-28T10:04:43.419Z,10.23
2022-09-28T10:08:08.913Z,10.23
2022-09-28T10:11:25.604Z,10.38
2022-09-28T10:14:27.887Z,10.10
2022-09-28T10:17:29.799Z,10.75
2022-09-28T10:20:37.045Z,11.27
2022-09-28T10:23:41.020Z,12.00
2022-09-28T10:26:48.333Z,11.27
2022-09-28T10:29:55.335Z,10.55
2022-09-28T10:33:00.768Z,9.98
2022-09-28T10:36:07.354Z,10.18
2022-09-28T10:39:32.370Z,9.27
2022-09-28T10:42:36.249Z,8.98
2022-09-28T10:45:38.785Z,9.38
2022-09-28T10:48:51.682Z,9.27
2022-09-28T10:51:56.235Z,8.43
2022-09-28T10:54:58.527Z,8.90
2022-09-28T10:58:00.655Z,8.40
2022-09-28T11:01:09.378Z,7.65
2022-09-28T11:04:22.136Z,8.30
2022-09-28T11:07:30.746Z,7.80
2022-09-28T11:10:33.429Z,8.13
2022-09-28T11:13:47.921Z,8.07
2022-09-28T11:17:15.287Z,9.02
2022-09-28T11:20:28.156Z,8.45
2022-09-28T11:23:31.229Z,9.80
2022-09-28T11:26:51.260Z,10.50
2022-09-28T11:29:58.850Z,9.93
2022-09-28T11:33:10.121Z,9.95
2022-09-28T11:36:15.045Z,10.77
2022-09-28T11:39:33.175Z,10.75
2022-09-28T11:42:56.888Z,9.82
2022-09-28T11:46:21.167Z,8.90
2022-09-28T11:49:38.741Z,8.65
2022-09-28T11:52:56.693Z,8.77
2022-09-28T11:56:39.688Z,8.32
2022-09-28T12:00:05.178Z,9.45
2022-09-28T12:03:25.410Z,9.85
2022-09-28T12:06:38.826Z,8.82
2022-09-28T12:09:54.097Z,10.20
2022-09-28T12:13:10.214Z,9.95
2022-09-28T12:16:45.708Z,10.60
2022-09-28T12:20:01.655Z,10.35
2022-09-28T12:23:08.269Z,11.10
2022-09-28T12:26:16.161Z,11.57
2022-09-28T12:29:41.072Z,10.55
2022-09-28T12:32:58.596Z,9.80
2022-09-28T12:36:19.009Z,10.43
2022-09-28T12:39:56.397Z,9.32
2022-09-28T12:43:17.631Z,9.48
2022-09-28T12:46:40.943Z,9.40
2022-09-28T12:50:38.049Z,9.95
2022-09-28T12:57:40.362Z,9.63
2022-09-28T13:01:17.127Z,9.80
2022-09-28T13:04:41.432Z,9.20
2022-09-28T13:07:54.181Z,9.18
2022-09-28T13:11:32.019Z,9.40
2022-09-28T13:14:45.827Z,9.77
2022-09-28T13:17:56.881Z,10.20
2022-09-28T13:21:15.214Z,9.75
2022-09-28T13:24:32.619Z,9.73
2022-09-28T13:27:40.540Z,9.95
2022-09-28T13:30:45.270Z,9.93
2022-09-28T13:33:49.087Z,10.73
2022-09-28T13:37:10.018Z,9.60
2022-09-28T13:40:12.044Z,8.93
2022-09-28T13:43:28.783Z,8.57
2022-09-28T13:46:39.307Z,10.30
2022-09-28T13:49:44.659Z,8.77
2022-09-28T13:53:31.320Z,9.00
2022-09-28T13:56:50.964Z,8.85
2022-09-28T14:00:16.410Z,8.77
2022-09-28T14:03:27.769Z,9.93
2022-09-28T14:06:32.223Z,11.88
2022-09-28T14:09:59.017Z,12.20
2022-09-28T14:13:02.332Z,10.70
2022-09-28T14:16:18.154Z,11.43
2022-09-28T14:19:26.662Z,11.75
2022-09-28T14:22:49.437Z,11.85
2022-09-28T14:26:15.470Z,13.10
2022-09-28T14:29:28.525Z,11.00
2022-09-28T14:32:37.533Z,11.43
2022-09-28T14:35:45.466Z,10.43
2022-09-28T14:39:08.699Z,10.40
2022-09-28T14:42:29.011Z,9.82
2022-09-28T14:45:36.322Z,8.85
2022-09-28T14:48:50.565Z,9.63
2022-09-28T14:51:57.859Z,10.63
2022-09-28T14:54:59.733Z,12.80
2022-09-28T14:58:04.548Z,16.00
2022-09-28T15:01:17.206Z,13.43
2022-09-28T15:04:20.524Z,13.90
2022-09-28T15:07:34.335Z,13.27
2022-09-28T15:10:42.043Z,16.55
2022-09-28T15:13:44.317Z,14.65
2022-09-28T15:16:46.458Z,14.77
2022-09-28T15:19:53.827Z,12.95
2022-09-28T15:23:00.869Z,13.25
2022-09-28T15:26:07.193Z,12.63
2022-09-28T15:29:20.800Z,12.90
2022-09-28T15:32:31.778Z,12.48
2022-09-28T15:35:34.633Z,12.23
2022-09-28T15:38:36.858Z,12.43
2022-09-28T15:41:39.075Z,13.98
2022-09-28T15:44:45.711Z,15.18
2022-09-28T15:47:47.669Z,16.20
2022-09-28T15:51:06.183Z,16.77
2022-09-28T15:54:20.405Z,14.48
2022-09-28T15:57:38.083Z,14.18
2022-09-28T16:00:40.461Z,12.63
2022-09-28T16:03:42.406Z,12.67
2022-09-28T16:06:44.692Z,11.88
2022-09-28T16:10:11.540Z,13.07
2022-09-28T16:13:20.082Z,12.75
2022-09-28T16:16:30.722Z,13.45
2022-09-28T16:19:37.820Z,13.20
2022-09-28T16:22:43.328Z,13.75
2022-09-28T16:26:02.879Z,12.20
2022-09-28T16:29:29.518Z,12.95
2022-09-28T16:32:54.468Z,13.40
2022-09-28T16:36:01.851Z,12.02
2022-09-28T16:39:04.013Z,12.48
2022-09-28T16:42:08.107Z,12.90
2022-09-28T16:45:20.624Z,11.95
2022-09-28T16:48:27.336Z,12.98
2022-09-28T16:51:29.582Z,13.45
2022-09-28T16:54:53.979Z,13.68
2022-09-28T16:57:56.384Z,14.40
2022-09-28T17:00:59.129Z,14.23
2022-09-28T17:04:01.434Z,14.23
2022-09-28T17:07:03.334Z,16.35
2022-09-28T17:10:16.838Z,15.38
2022-09-28T17:16:58.196Z,15.65
2022-09-28T17:19:52.287Z,14.20
2022-09-28T17:22:54.269Z,14.15
2022-09-28T17:25:56.845Z,16.25
2022-09-28T17:28:59.457Z,17.13
2022-09-28T17:32:01.600Z,15.48
2022-09-28T17:35:23.582Z,14.90
2022-09-28T17:38:27.071Z,21.85
2022-09-28T17:41:29.091Z,22.35
2022-09-28T17:44:31.036Z,19.90
2022-09-28T17:47:34.432Z,21.23
2022-09-28T17:50:36.561Z,21.30
2022-09-28T17:53:38.604Z,19.70
2022-09-28T17:56:40.601Z,21.02
2022-09-28T17:59:42.508Z,19.55
2022-09-28T18:02:45.323Z,20.80
2022-09-28T18:05:51.016Z,20.85
2022-09-28T18:08:53.079Z,19.25
2022-09-28T18:12:05.280Z,20.33
2022-09-28T18:15:07.674Z,20.90
2022-09-28T18:18:10.799Z,19.17
2022-09-28T18:21:12.995Z,19.02
2022-09-28T18:24:14.926Z,18.95
2022-09-28T18:27:16.850Z,20.05
2022-09-28T18:30:18.818Z,19.75
2022-09-28T18:33:20.945Z,19.10
2022-09-28T18:36:37.443Z,20.52
2022-09-28T18:39:39.532Z,22.27
2022-09-28T18:42:44.698Z,22.58
2022-09-28T18:45:47.288Z,21.45
2022-09-28T18:48:49.751Z,20.88
2022-09-28T18:51:52.271Z,22.77
2022-09-28T18:54:54.219Z,24.50
2022-09-28T18:57:56.259Z,25.25
2022-09-28T19:01:25.218Z,25.13
2022-09-28T19:04:20.635Z,26.00
2022-09-28T19:07:23.272Z,29.07
2022-09-28T19:10:25.450Z,28.42
2022-09-28T19:13:28.523Z,29.75
2022-09-28T19:16:33.713Z,29.23
2022-09-28T19:19:35.909Z,27.85
2022-09-28T19:22:37.825Z,28.33
2022-09-28T19:25:41.032Z,26.73
2022-09-28T19:28:43.143Z,25.90
2022-09-28T19:31:45.309Z,27.15
2022-09-28T19:34:47.176Z,29.10
2022-09-28T19:37:50.128Z,27.95
2022-09-28T19:40:52.112Z,26.60
2022-09-28T19:43:55.415Z,26.25
2022-09-28T19:50:10.267Z,26.50
2022-09-28T19:53:13.233Z,26.92
2022-09-28T19:56:16.661Z,27.05
2022-09-28T19:59:19.227Z,25.92
2022-09-28T20:02:22.045Z,24.83
2022-09-28T20:05:24.006Z,25.00
2022-09-28T20:08:26.731Z,26.42
2022-09-28T20:11:31.852Z,25.77
2022-09-28T20:14:37.959Z,25.85
2022-09-28T20:17:44.460Z,25.45
2022-09-28T20:20:46.314Z,27.60
2022-09-28T20:23:49.677Z,26.33
2022-09-28T20:29:53.726Z,25.95
2022-09-28T20:32:55.578Z,26.40
2022-09-28T20:35:57.889Z,25.67
2022-09-28T20:39:03.655Z,25.58
2022-09-28T20:42:05.674Z,25.63
2022-09-28T20:45:07.709Z,25.30
2022-09-28T20:48:09.589Z,24.30
2022-09-28T20:51:14.020Z,25.73
2022-09-28T20:54:15.926Z,24.75
2022-09-28T20:57:17.840Z,25.02
2022-09-28T21:00:19.876Z,25.38
2022-09-28T21:03:21.774Z,26.08
2022-09-28T21:06:27.051Z,27.10
2022-09-28T21:09:31.200Z,25.70
2022-09-28T21:12:34.287Z,26.02
2022-09-28T21:15:36.312Z,26.30
2022-09-28T21:18:41.212Z,24.50
2022-09-28T21:21:43.265Z,24.70
2022-09-28T21:24:45.439Z,25.50
2022-09-28T21:27:47.929Z,24.00
2022-09-28T21:30:52.007Z,25.80
2022-09-28T21:33:53.922Z,26.02
2022-09-28T21:36:55.858Z,26.35
2022-09-28T21:39:58.176Z,25.73
2022-09-28T21:43:03.996Z,24.85
2022-09-28T21:46:07.843Z,25.27
2022-09-28T21:49:11.032Z,25.65
2022-09-28T21:52:12.853Z,26.00
2022-09-28T21:55:14.811Z,24.15
2022-09-28T21:58:23.747Z,24.58
2022-09-28T22:01:26.301Z,26.00
2022-09-28T22:04:29.983Z,26.20
2022-09-28T22:07:32.137Z,26.40
2022-09-28T22:10:33.980Z,25.88
2022-09-28T22:13:51.840Z,26.50
2022-09-28T22:16:54.747Z,27.20
2022-09-28T22:19:57.518Z,28.20
2022-09-28T22:23:00.501Z,42.17
2022-09-28T22:29:16.997Z,28.02
2022-09-28T22:32:20.260Z,28.98
2022-09-28T22:38:25.012Z,31.02
2022-09-28T22:41:27.126Z,33.15
2022-09-28T22:44:30.109Z,34.17
2022-09-28T22:47:31.922Z,36.92
2022-09-28T22:50:34.520Z,35.88
2022-09-28T22:53:36.396Z,37.15
2022-09-28T22:56:38.281Z,33.13
2022-09-28T22:59:40.137Z,37.20
2022-09-28T23:02:42.027Z,40.67
2022-09-28T23:05:55.041Z,43.28
2022-09-28T23:08:57.354Z,51.33
2022-09-28T23:11:59.300Z,53.50
2022-09-28T23:15:01.147Z,57.88
2022-09-28T23:18:02.955Z,55.22
2022-09-28T23:21:07.222Z,59.17
2022-09-28T23:24:10.928Z,50.15
2022-09-28T23:27:12.865Z,48.97
2022-09-28T23:30:16.332Z,45.53
2022-09-28T23:33:20.425Z,44.03
2022-09-28T23:36:22.297Z,40.50
2022-09-28T23:39:24.157Z,40.15
2022-09-28T23:42:25.967Z,45.03
2022-09-28T23:45:27.895Z,44.30
2022-09-28T23:48:29.921Z,42.40
2022-09-28T23:51:31.950Z,40.83
2022-09-28T23:54:33.866Z,42.03
2022-09-28T23:57:35.729Z,41.75
